Nearby METAR Reports

 

KSLE - Salem, Oregon, USA
Distance from station: NE 1mi, 2km
Updated: Sat, 04-Feb-2023 3:56am PST
Partly cloudy
Partly cloudy
 Wind from E
Wind: E 3 mph , 6 km/h
Temperature: 45°F , 7°C
Dew Point: 43°F , 6°C
Humidity: 93%
Barometer: 30.06 inHg , 1017.9 hPa
Clouds: Partly cloudy
Visibility: 10 miles , 16 km
Cloud details: Partly cloudy 9000 ft
Partly cloudy 11000 ft
2023/02/04 11:56 KSLE 041156Z AUTO 10003KT 10SM SCT090 SCT110 07/06 A3006 RMK AO2 SLP180 60000 70018 T00720056 10094 20072 58009
KMMV - Mcminnville, Oregon, USA
Distance from station: NNW 22mi, 36km
Updated: Sat, 04-Feb-2023 3:53am PST
Overcast
Overcast
 Wind from E
Wind: E 5 mph , 7 km/h
Temperature: 45°F , 7°C
Wind Chill: 42°F , 6°C
Dew Point: 43°F , 6°C
Humidity: 93%
Barometer: 30.06 inHg , 1017.9 hPa
Clouds: Overcast
Visibility: 10 miles , 16 km
Cloud details: Partly cloudy 5000 ft
Overcast 9000 ft
2023/02/04 11:53 KMMV 041153Z AUTO 10004KT 10SM SCT050 OVC090 07/06 A3006 RMK AO2 SLP179 60001 70010 T00720061 10094 20072 58008
 
KUAO - Aurora, Oregon, USA
Distance from station: NNE 28mi, 45km
Updated: Sat, 04-Feb-2023 3:53am PST
Overcast
Overcast
 Wind from calm
Wind: Calm
Temperature: 45°F , 7°C
Dew Point: 45°F , 7°C
Humidity: 100%
Barometer: 30.09 inHg , 1019 hPa
Clouds: Overcast
Visibility: 9 miles , 14 km
Cloud details: Overcast 5500 ft
2023/02/04 11:53 KUAO 041153Z 00000KT 9SM OVC055 07/07 A3009 RMK AO2 SLP187 60005 70023 T00720067 10089 20067 58007
KCVO - Corvallis Muni A, Oregon, USA
Distance from station: SSW 29mi, 47km
Updated: Sat, 04-Feb-2023 3:56am PST
Mostly cloudy
Mostly cloudy
 Wind from calm
Wind: Calm
Temperature: 45°F , 7°C
Dew Point: 41°F , 5°C
Humidity: 87%
Barometer: 30.08 inHg , 1018.6 hPa
Clouds: Mostly cloudy
Visibility: 10 miles , 16 km
Cloud details: Mostly cloudy 9500 ft
2023/02/04 11:56 KCVO 041156Z AUTO 00000KT 10SM BKN095 07/05 A3008 RMK AO2 SLP186 6//// 7//// T00670050 10078 20061 58009
 
KHIO - Hillsboro/Portld, Oregon, USA
Distance from station: N 46mi, 74km
Updated: Sat, 04-Feb-2023 3:53am PST
Overcast
Overcast
 Wind from ESE
Wind: ESE 7 mph , 11 km/h
Temperature: 46°F , 8°C
Wind Chill: 42°F , 6°C
Dew Point: 45°F , 7°C
Humidity: 93%
Barometer: 30.07 inHg , 1018.3 hPa
Clouds: Overcast
Visibility: 10 miles , 16 km
Cloud details: Overcast 4600 ft
2023/02/04 11:53 KHIO 041153Z 11006KT 10SM OVC046 08/07 A3007 RMK AO2 SLP182 60002 70022 T00830067 10083 20067 58005